createdAt,value
2018-02-23T00:00:37.781Z,94.80
2018-02-23T00:03:06.945Z,94.90
2018-02-23T00:05:35.296Z,94.90
2018-02-23T00:08:03.635Z,94.90
2018-02-23T00:10:32.766Z,95.20
2018-02-23T00:13:01.086Z,95.10
2018-02-23T00:15:29.432Z,95.20
2018-02-23T00:17:58.376Z,95.30
2018-02-23T00:20:26.706Z,95.20
2018-02-23T00:22:55.041Z,95.40
2018-02-23T00:25:23.394Z,95.30
2018-02-23T00:27:51.712Z,95.50
2018-02-23T00:30:20.144Z,95.60
2018-02-23T00:32:48.474Z,95.80
2018-02-23T00:35:17.612Z,96.00
2018-02-23T00:37:46.034Z,96.00
2018-02-23T00:40:14.424Z,95.80
2018-02-23T00:42:43.122Z,96.00
2018-02-23T00:45:11.522Z,96.10
2018-02-23T00:47:39.859Z,96.40
2018-02-23T00:50:08.178Z,96.40
2018-02-23T00:52:37.300Z,96.70
2018-02-23T00:55:05.698Z,96.40
2018-02-23T00:57:34.042Z,96.40
2018-02-23T01:00:03.154Z,96.60
2018-02-23T01:02:32.266Z,96.60
2018-02-23T01:05:01.368Z,96.60
2018-02-23T01:07:29.768Z,96.30
2018-02-23T01:09:58.138Z,96.40
2018-02-23T01:12:26.476Z,96.70
2018-02-23T01:14:54.862Z,96.30
2018-02-23T01:17:24.023Z,96.20
2018-02-23T01:19:52.403Z,96.20
2018-02-23T01:22:20.817Z,95.80
2018-02-23T01:24:49.145Z,96.00
2018-02-23T01:27:17.484Z,96.00
2018-02-23T01:29:45.825Z,96.10
2018-02-23T01:32:14.183Z,96.10
2018-02-23T01:34:42.528Z,96.50
2018-02-23T01:37:11.651Z,96.50
2018-02-23T01:39:40.012Z,96.40
2018-02-23T01:42:08.380Z,96.30
2018-02-23T01:44:36.714Z,96.20
2018-02-23T01:47:05.089Z,96.30
2018-02-23T01:49:33.483Z,96.10
2018-02-23T01:52:01.844Z,96.60
2018-02-23T01:54:30.266Z,96.60
2018-02-23T01:56:58.655Z,96.80
2018-02-23T01:59:27.054Z,96.80
2018-02-23T02:01:55.408Z,97.00
2018-02-23T02:04:23.737Z,96.80
2018-02-23T02:06:52.878Z,96.60
2018-02-23T02:09:21.272Z,96.60
2018-02-23T02:11:49.610Z,97.10
2018-02-23T02:14:17.960Z,96.90
2018-02-23T02:16:46.320Z,96.90
2018-02-23T02:19:14.679Z,96.80
2018-02-23T02:21:43.022Z,96.80
2018-02-23T02:24:12.156Z,96.80
2018-02-23T02:26:40.462Z,96.80
2018-02-23T02:29:08.807Z,96.70
2018-02-23T02:31:37.115Z,96.70
2018-02-23T02:34:05.604Z,96.70
2018-02-23T02:36:34.718Z,97.00
2018-02-23T02:39:03.068Z,97.30
2018-02-23T02:41:31.433Z,97.20
2018-02-23T02:43:59.790Z,97.40
2018-02-23T02:46:28.940Z,97.20
2018-02-23T02:48:57.328Z,97.20
2018-02-23T02:51:25.647Z,97.20
2018-02-23T02:53:54.762Z,97.10
2018-02-23T02:56:23.135Z,97.10
2018-02-23T02:58:52.260Z,97.20
2018-02-23T03:01:20.627Z,97.20
2018-02-23T03:03:49.030Z,97.20
2018-02-23T03:06:17.454Z,96.70
2018-02-23T03:08:45.849Z,96.80
2018-02-23T03:11:15.056Z,97.20
2018-02-23T03:13:43.576Z,97.20
2018-02-23T03:16:11.959Z,97.10
2018-02-23T03:18:40.286Z,97.20
2018-02-23T03:21:08.653Z,97.10
2018-02-23T03:23:37.791Z,97.30
2018-02-23T03:26:06.187Z,97.30
2018-02-23T03:28:34.536Z,97.30
2018-02-23T03:31:02.875Z,97.40
2018-02-23T03:33:31.230Z,97.30
2018-02-23T03:35:59.649Z,97.40
2018-02-23T03:38:27.996Z,97.20
2018-02-23T03:40:56.340Z,97.20
2018-02-23T03:43:24.979Z,97.40
2018-02-23T03:45:53.456Z,97.50
2018-02-23T03:48:21.830Z,97.30
2018-02-23T03:50:50.270Z,97.20
2018-02-23T03:53:18.663Z,97.20
2018-02-23T03:55:47.044Z,97.40
2018-02-23T03:58:15.389Z,97.30
2018-02-23T04:00:43.992Z,97.10
2018-02-23T04:03:12.428Z,97.10
2018-02-23T04:05:40.808Z,97.40
2018-02-23T04:08:09.228Z,97.70
2018-02-23T04:10:37.588Z,97.50
2018-02-23T04:13:06.030Z,97.70
2018-02-23T04:15:34.400Z,97.30
2018-02-23T04:18:02.748Z,97.20
2018-02-23T04:20:31.076Z,97.20
2018-02-23T04:23:00.248Z,97.80
2018-02-23T04:25:28.622Z,97.70
2018-02-23T04:27:57.014Z,98.10
2018-02-23T04:30:25.464Z,97.70
2018-02-23T04:32:54.623Z,97.60
2018-02-23T04:35:23.738Z,97.60
2018-02-23T04:37:52.060Z,97.60
2018-02-23T04:40:20.384Z,97.70
2018-02-23T04:42:49.464Z,97.50
2018-02-23T04:45:17.794Z,97.50
2018-02-23T04:47:46.102Z,97.30
2018-02-23T04:50:14.417Z,97.10
2018-02-23T04:52:43.496Z,98.30
2018-02-23T04:55:11.810Z,98.30
2018-02-23T04:57:40.889Z,98.70
2018-02-23T05:00:09.216Z,98.70
2018-02-23T05:02:37.537Z,98.90
2018-02-23T05:05:05.858Z,98.70
2018-02-23T05:07:34.176Z,97.80
2018-02-23T05:10:02.497Z,97.90
2018-02-23T05:12:31.592Z,98.20
2018-02-23T05:14:59.923Z,98.10
2018-02-23T05:17:28.247Z,98.60
2018-02-23T05:19:56.560Z,98.50
2018-02-23T05:22:24.882Z,97.70
2018-02-23T05:24:53.190Z,97.60
2018-02-23T05:27:21.544Z,97.90
2018-02-23T05:29:49.904Z,98.10
2018-02-23T05:32:18.228Z,97.80
2018-02-23T05:34:46.619Z,98.40
2018-02-23T05:37:14.980Z,98.30
2018-02-23T05:39:43.303Z,98.40
2018-02-23T05:42:11.733Z,98.50
2018-02-23T05:44:40.060Z,98.80
2018-02-23T05:47:09.141Z,98.70
2018-02-23T05:49:37.468Z,98.70
2018-02-23T05:52:05.778Z,98.60
2018-02-23T05:54:34.134Z,98.80
2018-02-23T05:57:02.454Z,98.70
2018-02-23T05:59:30.784Z,98.90
2018-02-23T06:01:59.100Z,98.80
2018-02-23T06:04:27.448Z,98.70
2018-02-23T06:06:55.775Z,98.60
2018-02-23T06:09:24.114Z,98.10
2018-02-23T06:11:52.430Z,97.80
2018-02-23T06:14:20.774Z,98.00
2018-02-23T06:16:49.111Z,98.00
2018-02-23T06:19:24.344Z,97.70
2018-02-23T06:21:52.673Z,97.90
2018-02-23T06:24:21.003Z,98.30
2018-02-23T06:26:49.319Z,98.30
2018-02-23T06:29:17.640Z,98.40
2018-02-23T06:31:46.044Z,98.20
2018-02-23T06:34:14.383Z,97.90
2018-02-23T06:36:42.698Z,97.70
2018-02-23T06:39:11.020Z,97.70
2018-02-23T06:41:39.399Z,97.80
2018-02-23T06:44:07.729Z,97.70
2018-02-23T06:46:36.044Z,97.90
2018-02-23T06:49:05.157Z,97.70
2018-02-23T06:51:34.337Z,97.60
2018-02-23T06:54:03.572Z,97.60
2018-02-23T06:56:31.903Z,97.60
2018-02-23T06:59:00.245Z,97.60
2018-02-23T07:01:28.597Z,97.80
2018-02-23T07:03:57.722Z,97.60
2018-02-23T07:06:26.056Z,97.60
2018-02-23T07:08:54.466Z,98.00
2018-02-23T07:11:23.543Z,97.60
2018-02-23T07:13:52.628Z,97.30
2018-02-23T07:16:21.662Z,97.30
2018-02-23T07:18:49.994Z,97.50
2018-02-23T07:21:18.341Z,97.70
2018-02-23T07:23:46.656Z,97.70
2018-02-23T07:26:14.987Z,97.80
2018-02-23T07:28:43.300Z,97.60
2018-02-23T07:31:11.607Z,97.60
2018-02-23T07:33:39.962Z,97.90
2018-02-23T07:36:08.287Z,98.10
2018-02-23T07:38:37.402Z,99.50
2018-02-23T07:41:06.493Z,99.10
2018-02-23T07:43:35.637Z,99.70
2018-02-23T07:46:05.739Z,99.70
2018-02-23T07:48:34.053Z,99.90
2018-02-23T07:51:02.374Z,99.80
2018-02-23T07:53:31.469Z,99.10
2018-02-23T07:56:00.617Z,98.80
2018-02-23T07:58:28.972Z,98.80
2018-02-23T08:00:57.285Z,99.00
2018-02-23T08:03:25.624Z,99.00
2018-02-23T08:05:54.074Z,98.50
2018-02-23T08:08:22.419Z,98.30
2018-02-23T08:10:50.891Z,97.80
2018-02-23T08:13:19.189Z,97.40
2018-02-23T08:15:47.499Z,97.20
2018-02-23T08:18:15.833Z,97.10
2018-02-23T08:20:44.128Z,97.00
2018-02-23T08:23:12.603Z,96.40
2018-02-23T08:25:40.999Z,96.20
2018-02-23T08:28:09.301Z,96.30
2018-02-23T08:30:37.667Z,95.90
2018-02-23T08:33:05.998Z,95.40
2018-02-23T08:35:35.125Z,94.30
2018-02-23T08:38:03.470Z,94.30
2018-02-23T08:40:32.607Z,93.70
2018-02-23T08:43:01.086Z,93.60
2018-02-23T08:45:29.486Z,93.60
2018-02-23T08:47:57.849Z,93.40
2018-02-23T08:50:26.205Z,93.10
2018-02-23T08:52:55.399Z,92.70
2018-02-23T08:55:23.731Z,92.70
2018-02-23T08:57:52.184Z,92.60
2018-02-23T09:00:21.257Z,92.70
2018-02-23T09:02:50.391Z,92.50
2018-02-23T09:05:19.077Z,92.50
2018-02-23T09:07:47.413Z,92.20
2018-02-23T09:10:16.677Z,92.00
2018-02-23T09:12:45.061Z,92.00
2018-02-23T09:15:13.390Z,91.00
2018-02-23T09:17:42.461Z,90.90
2018-02-23T09:20:10.848Z,90.90
2018-02-23T09:22:39.235Z,90.90
2018-02-23T09:25:07.561Z,90.70
2018-02-23T09:27:35.997Z,90.60
2018-02-23T09:30:04.382Z,90.50
2018-02-23T09:32:39.904Z,90.10
2018-02-23T09:35:08.250Z,90.10
2018-02-23T09:37:36.575Z,89.30
2018-02-23T09:40:04.897Z,87.90
2018-02-23T09:42:33.984Z,87.90
2018-02-23T09:45:03.053Z,87.20
2018-02-23T09:47:31.377Z,87.20
2018-02-23T09:50:00.463Z,86.70
2018-02-23T09:52:29.561Z,86.50
2018-02-23T09:54:58.689Z,85.70
2018-02-23T09:57:27.012Z,85.70
2018-02-23T09:59:55.339Z,84.70
2018-02-23T10:02:23.733Z,83.30
2018-02-23T10:04:52.112Z,83.80
2018-02-23T10:07:20.467Z,83.50
2018-02-23T10:09:49.534Z,82.00
2018-02-23T10:12:17.927Z,82.00
2018-02-23T10:14:46.235Z,81.50
2018-02-23T10:17:15.343Z,80.00
2018-02-23T10:19:43.706Z,80.80
2018-02-23T10:22:12.798Z,77.20
2018-02-23T10:24:41.143Z,77.20
2018-02-23T10:27:09.484Z,77.20
2018-02-23T10:29:37.819Z,75.70
2018-02-23T10:32:06.160Z,74.50
2018-02-23T10:34:34.549Z,74.00
2018-02-23T10:37:02.854Z,73.70
2018-02-23T10:39:31.515Z,73.30
2018-02-23T10:41:59.817Z,73.80
2018-02-23T10:44:28.196Z,73.30
2018-02-23T10:46:56.523Z,72.60
2018-02-23T10:49:25.613Z,69.60
2018-02-23T10:51:53.953Z,69.60
2018-02-23T10:54:22.271Z,69.30
2018-02-23T10:56:50.634Z,69.00
2018-02-23T10:59:18.965Z,67.70
2018-02-23T11:01:47.275Z,67.80
2018-02-23T11:04:16.477Z,66.40
2018-02-23T11:06:44.767Z,65.30
2018-02-23T11:09:13.091Z,64.80
2018-02-23T11:11:42.154Z,61.00
2018-02-23T11:14:10.599Z,60.90
2018-02-23T11:16:38.944Z,60.60
2018-02-23T11:19:08.051Z,58.60
2018-02-23T11:21:37.387Z,58.00
2018-02-23T11:24:05.688Z,57.70
2018-02-23T11:26:33.994Z,57.60
2018-02-23T11:29:03.009Z,56.40
2018-02-23T11:31:32.104Z,55.30
2018-02-23T11:34:01.237Z,54.40
2018-02-23T11:36:29.552Z,54.30
2018-02-23T11:38:57.869Z,53.00
2018-02-23T11:41:26.951Z,50.80
2018-02-23T11:43:55.379Z,50.80
2018-02-23T11:46:23.965Z,50.30
2018-02-23T11:48:52.288Z,48.50
2018-02-23T11:51:20.603Z,47.50
2018-02-23T11:53:49.820Z,47.00
2018-02-23T11:56:18.165Z,46.90
2018-02-23T11:58:46.638Z,46.60
2018-02-23T12:01:15.033Z,46.40
2018-02-23T12:03:43.340Z,46.30
2018-02-23T12:06:11.657Z,46.50
2018-02-23T12:08:40.114Z,46.60
2018-02-23T12:11:08.480Z,47.30
2018-02-23T12:13:37.841Z,46.10
2018-02-23T12:16:06.391Z,46.10
2018-02-23T12:18:34.689Z,46.00
2018-02-23T12:21:03.039Z,45.50
2018-02-23T12:23:32.254Z,44.90
2018-02-23T12:26:00.593Z,44.90
2018-02-23T12:28:28.972Z,45.00
2018-02-23T12:30:59.611Z,44.40
2018-02-23T12:33:28.953Z,44.50
2018-02-23T12:35:57.713Z,44.40
2018-02-23T12:38:26.812Z,43.80
2018-02-23T12:40:55.903Z,43.50
2018-02-23T12:43:24.223Z,43.50
2018-02-23T12:45:52.529Z,42.70
2018-02-23T12:48:20.870Z,40.60
2018-02-23T12:50:49.220Z,40.50
2018-02-23T12:53:17.532Z,40.90
2018-02-23T12:55:45.849Z,40.30
2018-02-23T12:58:14.916Z,40.00
2018-02-23T13:00:43.556Z,40.00
2018-02-23T13:03:11.874Z,39.00
2018-02-23T13:05:40.229Z,38.50
2018-02-23T13:08:08.594Z,38.10
2018-02-23T13:10:36.930Z,36.90
2018-02-23T13:13:05.339Z,36.30
2018-02-23T13:15:33.680Z,36.50
2018-02-23T13:18:02.018Z,35.70
2018-02-23T13:20:30.335Z,36.00
2018-02-23T13:22:59.410Z,35.40
2018-02-23T13:25:27.738Z,35.40
2018-02-23T13:28:01.635Z,34.60
2018-02-23T13:30:30.720Z,33.90
2018-02-23T13:32:59.815Z,33.60
2018-02-23T13:35:28.940Z,33.60
2018-02-23T13:37:57.258Z,33.50
2018-02-23T13:40:25.966Z,33.10
2018-02-23T13:42:54.302Z,32.20
2018-02-23T13:45:23.502Z,31.80
2018-02-23T13:47:51.826Z,31.50
2018-02-23T13:50:20.150Z,31.00
2018-02-23T13:52:48.494Z,31.40
2018-02-23T13:55:16.827Z,31.80
2018-02-23T13:57:45.266Z,32.00
2018-02-23T14:00:13.636Z,31.30
2018-02-23T14:02:42.432Z,31.10
2018-02-23T14:05:10.755Z,30.70
2018-02-23T14:07:39.154Z,30.40
2018-02-23T14:10:07.492Z,30.00
2018-02-23T14:12:36.604Z,30.00
2018-02-23T14:15:04.943Z,30.00
2018-02-23T14:17:33.357Z,29.70
2018-02-23T14:20:02.481Z,29.40
2018-02-23T14:22:30.860Z,29.40
2018-02-23T14:24:59.239Z,29.40
2018-02-23T14:27:27.573Z,29.50
2018-02-23T14:29:55.891Z,29.50
2018-02-23T14:32:24.213Z,29.50
2018-02-23T14:34:52.517Z,29.60
2018-02-23T14:37:21.802Z,29.60
2018-02-23T14:39:50.202Z,29.60
2018-02-23T14:42:19.173Z,29.60
2018-02-23T14:44:47.484Z,29.50
2018-02-23T14:47:17.097Z,29.20
2018-02-23T14:50:03.007Z,29.20
2018-02-23T14:52:32.191Z,29.00
2018-02-23T14:55:01.284Z,29.20
2018-02-23T14:57:30.363Z,29.30
2018-02-23T14:59:58.717Z,29.20
2018-02-23T15:02:27.051Z,29.50
2018-02-23T15:04:56.124Z,29.40
2018-02-23T15:07:24.502Z,29.30
2018-02-23T15:09:52.850Z,29.40
2018-02-23T15:12:21.167Z,29.50
2018-02-23T15:14:49.487Z,29.80
2018-02-23T15:17:17.814Z,30.00
2018-02-23T15:19:46.161Z,30.30
2018-02-23T15:22:14.633Z,30.60
2018-02-23T15:24:42.945Z,30.40
2018-02-23T15:27:11.293Z,29.90
2018-02-23T15:29:39.618Z,29.80
2018-02-23T15:32:38.595Z,29.60
2018-02-23T15:35:08.420Z,30.00
2018-02-23T15:37:36.730Z,30.50
2018-02-23T15:40:05.877Z,29.60
2018-02-23T15:42:34.192Z,29.60
2018-02-23T15:45:02.512Z,29.40
2018-02-23T15:47:34.169Z,29.40
2018-02-23T15:50:09.222Z,29.50
2018-02-23T15:52:37.829Z,29.80
2018-02-23T15:55:06.180Z,30.10
2018-02-23T15:57:34.544Z,30.20
2018-02-23T16:00:02.912Z,30.50
2018-02-23T16:02:32.045Z,31.60
2018-02-23T16:05:00.422Z,31.50
2018-02-23T16:07:28.766Z,32.00
2018-02-23T16:09:57.886Z,31.70
2018-02-23T16:12:26.977Z,31.60
2018-02-23T16:14:56.088Z,31.90
2018-02-23T16:17:24.401Z,31.90
2018-02-23T16:19:52.767Z,32.20
2018-02-23T16:22:21.087Z,32.70
2018-02-23T16:24:49.414Z,33.30
2018-02-23T16:27:17.744Z,33.80
2018-02-23T16:29:46.097Z,34.20
2018-02-23T16:32:14.426Z,35.20
2018-02-23T16:34:42.752Z,36.20
2018-02-23T16:37:11.124Z,38.20
2018-02-23T16:39:40.526Z,39.20
2018-02-23T16:42:09.083Z,39.70
2018-02-23T16:44:38.204Z,41.70
2018-02-23T16:47:06.601Z,41.70
2018-02-23T16:49:34.941Z,42.60
2018-02-23T16:52:04.059Z,44.60
2018-02-23T16:54:32.399Z,44.50
2018-02-23T16:57:01.489Z,46.00
2018-02-23T16:59:29.844Z,46.00
2018-02-23T17:02:00.452Z,46.50
2018-02-23T17:04:28.842Z,46.90
2018-02-23T17:06:57.996Z,48.10
2018-02-23T17:09:27.873Z,49.50
2018-02-23T17:11:56.224Z,50.40
2018-02-23T17:14:25.571Z,51.80
2018-02-23T17:16:53.888Z,51.70
2018-02-23T17:19:22.366Z,52.80
2018-02-23T17:21:50.758Z,53.20
2018-02-23T17:24:19.865Z,55.50
2018-02-23T17:26:49.816Z,55.60
2018-02-23T17:29:18.344Z,55.50
2018-02-23T17:31:48.225Z,56.70
2018-02-23T17:34:16.799Z,56.70
2018-02-23T17:36:45.946Z,57.10
2018-02-23T17:39:14.381Z,57.60
2018-02-23T17:41:42.698Z,57.90
2018-02-23T17:44:11.123Z,58.50
2018-02-23T17:46:39.453Z,58.90
2018-02-23T17:49:08.227Z,59.80
2018-02-23T17:51:36.716Z,59.70
2018-02-23T17:54:05.701Z,60.40
2018-02-23T17:56:34.106Z,60.30
2018-02-23T17:59:02.426Z,60.50
2018-02-23T18:01:30.767Z,60.90
2018-02-23T18:03:59.196Z,61.50
2018-02-23T18:06:27.565Z,61.70
2018-02-23T18:08:55.940Z,61.70
2018-02-23T18:11:24.400Z,62.90
2018-02-23T18:13:53.647Z,62.30
2018-02-23T18:16:22.038Z,62.30
2018-02-23T18:18:58.011Z,63.10
2018-02-23T18:21:26.594Z,63.00
2018-02-23T18:23:54.924Z,64.10
2018-02-23T18:26:23.294Z,63.90
2018-02-23T18:28:51.613Z,64.10
2018-02-23T18:31:20.756Z,64.20
2018-02-23T18:33:49.140Z,64.20
2018-02-23T18:36:17.461Z,64.50
2018-02-23T18:38:45.820Z,64.20
2018-02-23T18:41:14.174Z,64.40
2018-02-23T18:43:42.532Z,64.60
2018-02-23T18:46:10.920Z,64.60
2018-02-23T18:48:39.342Z,65.20
2018-02-23T18:51:09.008Z,65.50
2018-02-23T18:53:38.862Z,66.40
2018-02-23T18:56:07.182Z,66.40
2018-02-23T18:58:35.516Z,66.60
2018-02-23T19:01:03.852Z,67.10
2018-02-23T19:03:32.931Z,68.30
2018-02-23T19:06:01.740Z,68.20
2018-02-23T19:08:30.840Z,68.20
2018-02-23T19:10:59.174Z,68.20
2018-02-23T19:13:27.511Z,68.30
2018-02-23T19:15:56.624Z,69.00
2018-02-23T19:18:24.926Z,69.00
2018-02-23T19:20:53.252Z,69.30
2018-02-23T19:23:22.388Z,70.80
2018-02-23T19:25:50.701Z,70.00
2018-02-23T19:28:19.037Z,69.30
2018-02-23T19:30:48.135Z,69.70
2018-02-23T19:33:18.014Z,69.00
2018-02-23T19:35:46.330Z,69.00
2018-02-23T19:38:14.698Z,69.00
2018-02-23T19:40:43.796Z,68.50
2018-02-23T19:43:12.207Z,69.10
2018-02-23T19:45:40.558Z,69.70
2018-02-23T19:48:09.710Z,69.80
2018-02-23T19:50:38.136Z,69.70
2018-02-23T19:53:07.214Z,70.40
2018-02-23T19:55:35.557Z,70.30
2018-02-23T19:58:03.877Z,70.50
2018-02-23T20:00:32.892Z,71.00
2018-02-23T20:03:02.083Z,71.70
2018-02-23T20:05:30.503Z,71.60
2018-02-23T20:07:58.868Z,71.90
2018-02-23T20:10:27.950Z,71.90
2018-02-23T20:12:57.137Z,72.30
2018-02-23T20:15:26.317Z,72.20
2018-02-23T20:17:55.433Z,72.20
2018-02-23T20:20:23.789Z,72.20
2018-02-23T20:22:52.282Z,72.10
2018-02-23T20:25:20.626Z,72.00
2018-02-23T20:27:49.025Z,72.10
2018-02-23T20:30:17.491Z,72.40
2018-02-23T20:32:45.888Z,72.30
2018-02-23T20:35:14.397Z,72.40
2018-02-23T20:37:43.295Z,72.40
2018-02-23T20:40:11.730Z,72.50
2018-02-23T20:42:40.086Z,72.80
2018-02-23T20:45:08.448Z,73.20
2018-02-23T20:47:37.830Z,73.40
2018-02-23T20:50:06.236Z,73.50
2018-02-23T20:52:34.581Z,73.50
2018-02-23T20:55:03.346Z,73.60
2018-02-23T20:57:31.711Z,73.30
2018-02-23T21:00:00.926Z,73.30
2018-02-23T21:02:29.500Z,73.30
2018-02-23T21:04:57.960Z,73.40
2018-02-23T21:07:26.391Z,73.40
2018-02-23T21:09:54.739Z,73.40
2018-02-23T21:12:23.856Z,74.10
2018-02-23T21:14:52.998Z,74.40
2018-02-23T21:17:21.329Z,74.30
2018-02-23T21:19:50.425Z,74.80
2018-02-23T21:22:20.364Z,75.00
2018-02-23T21:24:48.749Z,75.00
2018-02-23T21:27:17.154Z,75.10
2018-02-23T21:29:45.478Z,75.40
2018-02-23T21:32:13.820Z,75.40
2018-02-23T21:34:42.155Z,75.90
2018-02-23T21:37:11.276Z,75.90
2018-02-23T21:39:39.626Z,75.90
2018-02-23T21:42:07.996Z,75.80
2018-02-23T21:44:47.730Z,75.90
2018-02-23T21:47:16.096Z,76.30
2018-02-23T21:49:44.431Z,75.80
2018-02-23T21:52:12.842Z,75.90
2018-02-23T21:54:41.218Z,75.90
2018-02-23T21:57:10.417Z,76.20
2018-02-23T21:59:38.794Z,76.20
2018-02-23T22:02:07.142Z,76.60
2018-02-23T22:04:36.256Z,76.80
2018-02-23T22:07:04.662Z,76.70
2018-02-23T22:09:33.006Z,76.80
2018-02-23T22:12:02.119Z,77.20
2018-02-23T22:14:30.505Z,77.20
2018-02-23T22:16:58.870Z,77.00
2018-02-23T22:19:27.939Z,77.10
2018-02-23T22:21:57.133Z,77.30
2018-02-23T22:24:25.524Z,77.30
2018-02-23T22:26:53.904Z,77.20
2018-02-23T22:29:22.232Z,77.50
2018-02-23T22:31:50.558Z,78.40
2018-02-23T22:34:18.866Z,77.40
2018-02-23T22:36:47.998Z,77.50
2018-02-23T22:39:16.993Z,77.40
2018-02-23T22:41:46.029Z,77.10
2018-02-23T22:44:15.809Z,77.50
2018-02-23T22:46:44.196Z,77.20
2018-02-23T22:49:12.697Z,77.20
2018-02-23T22:51:41.046Z,77.30
2018-02-23T22:54:09.403Z,77.50
2018-02-23T22:56:37.808Z,77.10
2018-02-23T22:59:06.195Z,76.90
2018-02-23T23:01:34.549Z,76.70
2018-02-23T23:04:04.261Z,77.20
2018-02-23T23:06:33.367Z,77.10
2018-02-23T23:09:02.544Z,76.90
2018-02-23T23:11:31.891Z,76.60
2018-02-23T23:14:00.282Z,76.60
2018-02-23T23:16:28.740Z,76.60
2018-02-23T23:18:57.833Z,76.50
2018-02-23T23:21:26.977Z,76.10
2018-02-23T23:23:56.033Z,76.10
2018-02-23T23:26:24.399Z,76.40
2018-02-23T23:28:53.492Z,76.00
2018-02-23T23:31:22.618Z,75.70
2018-02-23T23:33:50.982Z,75.60
2018-02-23T23:36:20.168Z,74.80
2018-02-23T23:38:48.541Z,74.80
2018-02-23T23:41:16.932Z,75.10
2018-02-23T23:43:46.113Z,75.30
2018-02-23T23:46:14.485Z,75.20
2018-02-23T23:48:43.453Z,75.50
2018-02-23T23:51:11.868Z,75.70
2018-02-23T23:53:40.238Z,75.60
2018-02-23T23:56:08.660Z,74.70
2018-02-23T23:58:37.044Z,75.50
